sensor_id;sensor_type;location;lat;lon;timestamp;pressure;altitude;pressure_sealevel;temperature;humidity
8061;BME280;4073;42.626;25.386;2023-08-07T00:00:30;96375.78;;;22.73;100.00
8061;BME280;4073;42.626;25.386;2023-08-07T00:02:56;96376.53;;;22.70;100.00
8061;BME280;4073;42.626;25.386;2023-08-07T00:05:21;96376.41;;;22.63;100.00
8061;BME280;4073;42.626;25.386;2023-08-07T00:07:47;96361.19;;;22.59;100.00
8061;BME280;4073;42.626;25.386;2023-08-07T00:10:12;96365.47;;;22.60;100.00
8061;BME280;4073;42.626;25.386;2023-08-07T00:12:38;96362.81;;;22.63;100.00
8061;BME280;4073;42.626;25.386;2023-08-07T00:15:04;96363.25;;;22.69;100.00
8061;BME280;4073;42.626;25.386;2023-08-07T00:17:30;96373.38;;;22.68;100.00
8061;BME280;4073;42.626;25.386;2023-08-07T00:19:55;96375.00;;;22.73;100.00
8061;BME280;4073;42.626;25.386;2023-08-07T00:22:21;96354.25;;;22.65;100.00
8061;BME280;4073;42.626;25.386;2023-08-07T00:24:46;96366.34;;;22.67;100.00
8061;BME280;4073;42.626;25.386;2023-08-07T00:27:12;96362.44;;;22.65;100.00
8061;BME280;4073;42.626;25.386;2023-08-07T00:29:40;96370.13;;;22.59;100.00
8061;BME280;4073;42.626;25.386;2023-08-07T00:32:06;96370.00;;;22.52;100.00
8061;BME280;4073;42.626;25.386;2023-08-07T00:34:32;96381.66;;;22.49;100.00
8061;BME280;4073;42.626;25.386;2023-08-07T00:36:58;96378.41;;;22.44;100.00
8061;BME280;4073;42.626;25.386;2023-08-07T00:39:23;96365.06;;;22.35;100.00
8061;BME280;4073;42.626;25.386;2023-08-07T00:41:49;96381.03;;;22.37;100.00
8061;BME280;4073;42.626;25.386;2023-08-07T00:44:14;96383.28;;;22.31;100.00
8061;BME280;4073;42.626;25.386;2023-08-07T00:46:40;96384.69;;;22.22;100.00
8061;BME280;4073;42.626;25.386;2023-08-07T00:49:08;96384.94;;;22.13;100.00
8061;BME280;4073;42.626;25.386;2023-08-07T00:51:35;96384.63;;;21.96;100.00
8061;BME280;4073;42.626;25.386;2023-08-07T00:54:03;96383.22;;;21.83;100.00
8061;BME280;4073;42.626;25.386;2023-08-07T00:56:30;96386.22;;;21.55;100.00
8061;BME280;4073;42.626;25.386;2023-08-07T00:58:58;96400.44;;;21.49;100.00
8061;BME280;4073;42.626;25.386;2023-08-07T01:01:23;96394.81;;;21.38;100.00
8061;BME280;4073;42.626;25.386;2023-08-07T01:03:49;96397.91;;;21.37;100.00
8061;BME280;4073;42.626;25.386;2023-08-07T01:06:14;96398.81;;;21.25;100.00
8061;BME280;4073;42.626;25.386;2023-08-07T01:08:40;96406.19;;;21.25;100.00
8061;BME280;4073;42.626;25.386;2023-08-07T01:14:00;96413.00;;;21.34;100.00
8061;BME280;4073;42.626;25.386;2023-08-07T01:16:48;96406.72;;;21.30;100.00
8061;BME280;4073;42.626;25.386;2023-08-07T01:19:26;96415.84;;;21.41;100.00
8061;BME280;4073;42.626;25.386;2023-08-07T01:24:34;96417.56;;;21.49;100.00
8061;BME280;4073;42.626;25.386;2023-08-07T01:29:36;96432.66;;;21.47;100.00
8061;BME280;4073;42.626;25.386;2023-08-07T01:32:05;96435.97;;;21.56;100.00
8061;BME280;4073;42.626;25.386;2023-08-07T01:34:34;96448.69;;;21.52;100.00
8061;BME280;4073;42.626;25.386;2023-08-07T01:37:01;96436.91;;;21.44;100.00
8061;BME280;4073;42.626;25.386;2023-08-07T01:39:28;96448.97;;;21.47;100.00
8061;BME280;4073;42.626;25.386;2023-08-07T01:41:54;96459.19;;;21.53;100.00
8061;BME280;4073;42.626;25.386;2023-08-07T01:44:20;96445.38;;;21.62;100.00
8061;BME280;4073;42.626;25.386;2023-08-07T01:46:46;96445.38;;;21.62;100.00
8061;BME280;4073;42.626;25.386;2023-08-07T01:49:11;96450.97;;;21.69;100.00
8061;BME280;4073;42.626;25.386;2023-08-07T01:51:37;96448.19;;;21.65;100.00
8061;BME280;4073;42.626;25.386;2023-08-07T01:54:02;96443.03;;;21.60;100.00
8061;BME280;4073;42.626;25.386;2023-08-07T01:56:28;96446.09;;;21.59;100.00
8061;BME280;4073;42.626;25.386;2023-08-07T01:58:53;96450.34;;;21.56;100.00
8061;BME280;4073;42.626;25.386;2023-08-07T02:01:19;96438.75;;;21.59;100.00
8061;BME280;4073;42.626;25.386;2023-08-07T02:03:44;96451.25;;;21.64;100.00
8061;BME280;4073;42.626;25.386;2023-08-07T02:06:09;96445.03;;;21.63;100.00
8061;BME280;4073;42.626;25.386;2023-08-07T02:08:35;96449.97;;;21.58;100.00
8061;BME280;4073;42.626;25.386;2023-08-07T02:11:00;96450.63;;;21.51;100.00
8061;BME280;4073;42.626;25.386;2023-08-07T02:13:26;96434.03;;;21.37;100.00
8061;BME280;4073;42.626;25.386;2023-08-07T02:15:52;96442.19;;;21.37;100.00
8061;BME280;4073;42.626;25.386;2023-08-07T02:18:17;96453.56;;;21.43;100.00
8061;BME280;4073;42.626;25.386;2023-08-07T02:20:43;96449.41;;;21.30;100.00
8061;BME280;4073;42.626;25.386;2023-08-07T02:23:08;96454.00;;;21.26;100.00
8061;BME280;4073;42.626;25.386;2023-08-07T02:25:34;96455.91;;;21.25;100.00
8061;BME280;4073;42.626;25.386;2023-08-07T02:28:00;96458.75;;;21.13;100.00
8061;BME280;4073;42.626;25.386;2023-08-07T02:30:25;96455.97;;;21.10;100.00
8061;BME280;4073;42.626;25.386;2023-08-07T02:32:50;96466.69;;;21.03;100.00
8061;BME280;4073;42.626;25.386;2023-08-07T02:35:16;96455.13;;;21.06;100.00
8061;BME280;4073;42.626;25.386;2023-08-07T02:37:41;96464.69;;;21.00;100.00
8061;BME280;4073;42.626;25.386;2023-08-07T02:40:07;96457.50;;;20.92;100.00
8061;BME280;4073;42.626;25.386;2023-08-07T02:42:33;96458.53;;;20.87;100.00
8061;BME280;4073;42.626;25.386;2023-08-07T02:44:58;96454.97;;;20.83;100.00
8061;BME280;4073;42.626;25.386;2023-08-07T02:47:24;96463.47;;;20.82;100.00
8061;BME280;4073;42.626;25.386;2023-08-07T02:49:49;96473.09;;;20.79;100.00
8061;BME280;4073;42.626;25.386;2023-08-07T02:52:14;96467.94;;;20.74;100.00
8061;BME280;4073;42.626;25.386;2023-08-07T02:54:40;96479.09;;;20.69;100.00
8061;BME280;4073;42.626;25.386;2023-08-07T02:57:05;96478.28;;;20.69;100.00
8061;BME280;4073;42.626;25.386;2023-08-07T02:59:31;96491.53;;;20.70;100.00
8061;BME280;4073;42.626;25.386;2023-08-07T03:01:56;96492.47;;;20.62;100.00
8061;BME280;4073;42.626;25.386;2023-08-07T03:04:22;96502.13;;;20.60;100.00
8061;BME280;4073;42.626;25.386;2023-08-07T03:06:47;96501.78;;;20.61;100.00
8061;BME280;4073;42.626;25.386;2023-08-07T03:09:12;96494.50;;;20.65;100.00
8061;BME280;4073;42.626;25.386;2023-08-07T03:11:38;96502.22;;;20.63;100.00
8061;BME280;4073;42.626;25.386;2023-08-07T03:14:03;96498.47;;;20.68;100.00
8061;BME280;4073;42.626;25.386;2023-08-07T03:16:29;96491.72;;;20.62;100.00
8061;BME280;4073;42.626;25.386;2023-08-07T03:18:54;96508.41;;;20.64;100.00
8061;BME280;4073;42.626;25.386;2023-08-07T03:21:20;96505.44;;;20.69;100.00
8061;BME280;4073;42.626;25.386;2023-08-07T03:23:45;96514.31;;;20.66;100.00
8061;BME280;4073;42.626;25.386;2023-08-07T03:26:12;96522.63;;;20.73;100.00
8061;BME280;4073;42.626;25.386;2023-08-07T03:28:39;96534.69;;;20.75;100.00
8061;BME280;4073;42.626;25.386;2023-08-07T03:31:05;96525.25;;;20.69;100.00
8061;BME280;4073;42.626;25.386;2023-08-07T03:33:30;96524.13;;;20.70;100.00
8061;BME280;4073;42.626;25.386;2023-08-07T03:35:56;96505.81;;;20.67;100.00
8061;BME280;4073;42.626;25.386;2023-08-07T03:38:21;96521.66;;;20.65;100.00
8061;BME280;4073;42.626;25.386;2023-08-07T03:40:47;96525.97;;;20.66;100.00
8061;BME280;4073;42.626;25.386;2023-08-07T03:43:12;96526.50;;;20.56;100.00
8061;BME280;4073;42.626;25.386;2023-08-07T03:45:39;96533.78;;;20.52;100.00
8061;BME280;4073;42.626;25.386;2023-08-07T03:48:04;96524.03;;;20.51;100.00
8061;BME280;4073;42.626;25.386;2023-08-07T03:50:30;96530.44;;;20.43;100.00
8061;BME280;4073;42.626;25.386;2023-08-07T03:52:56;96531.81;;;20.37;100.00
8061;BME280;4073;42.626;25.386;2023-08-07T03:55:21;96530.06;;;20.29;100.00
8061;BME280;4073;42.626;25.386;2023-08-07T03:57:47;96551.66;;;20.25;100.00
8061;BME280;4073;42.626;25.386;2023-08-07T04:00:12;96546.25;;;20.25;100.00
8061;BME280;4073;42.626;25.386;2023-08-07T04:02:38;96540.56;;;20.30;100.00
8061;BME280;4073;42.626;25.386;2023-08-07T04:05:04;96552.19;;;20.31;100.00
8061;BME280;4073;42.626;25.386;2023-08-07T04:07:29;96552.50;;;20.42;100.00
8061;BME280;4073;42.626;25.386;2023-08-07T04:09:55;96554.31;;;20.38;100.00
8061;BME280;4073;42.626;25.386;2023-08-07T04:12:20;96550.19;;;20.43;100.00
8061;BME280;4073;42.626;25.386;2023-08-07T04:14:46;96544.63;;;20.52;100.00
8061;BME280;4073;42.626;25.386;2023-08-07T04:17:11;96566.53;;;20.59;100.00
8061;BME280;4073;42.626;25.386;2023-08-07T04:19:37;96566.00;;;20.69;100.00
8061;BME280;4073;42.626;25.386;2023-08-07T04:22:02;96562.22;;;20.74;100.00
8061;BME280;4073;42.626;25.386;2023-08-07T04:24:28;96568.72;;;20.69;100.00
8061;BME280;4073;42.626;25.386;2023-08-07T04:26:53;96575.44;;;20.75;100.00
8061;BME280;4073;42.626;25.386;2023-08-07T04:29:19;96569.84;;;20.84;100.00
8061;BME280;4073;42.626;25.386;2023-08-07T04:31:44;96557.56;;;20.90;100.00
8061;BME280;4073;42.626;25.386;2023-08-07T04:34:09;96570.22;;;20.98;100.00
8061;BME280;4073;42.626;25.386;2023-08-07T04:36:35;96573.47;;;21.03;100.00
8061;BME280;4073;42.626;25.386;2023-08-07T04:39:00;96573.28;;;21.12;100.00
8061;BME280;4073;42.626;25.386;2023-08-07T04:41:26;96580.09;;;21.21;100.00
8061;BME280;4073;42.626;25.386;2023-08-07T04:43:51;96585.19;;;21.23;100.00
8061;BME280;4073;42.626;25.386;2023-08-07T04:46:17;96576.31;;;21.26;100.00
8061;BME280;4073;42.626;25.386;2023-08-07T04:48:42;96586.41;;;21.25;100.00
8061;BME280;4073;42.626;25.386;2023-08-07T04:51:08;96583.44;;;21.30;100.00
8061;BME280;4073;42.626;25.386;2023-08-07T04:53:33;96594.88;;;21.39;100.00
8061;BME280;4073;42.626;25.386;2023-08-07T04:55:59;96597.03;;;21.49;100.00
8061;BME280;4073;42.626;25.386;2023-08-07T04:58:25;96603.69;;;21.52;100.00
8061;BME280;4073;42.626;25.386;2023-08-07T05:00:57;96595.09;;;21.65;100.00
8061;BME280;4073;42.626;25.386;2023-08-07T05:03:23;96595.09;;;21.65;100.00
8061;BME280;4073;42.626;25.386;2023-08-07T05:05:48;96597.13;;;21.87;100.00
8061;BME280;4073;42.626;25.386;2023-08-07T05:08:14;96602.94;;;22.05;100.00
8061;BME280;4073;42.626;25.386;2023-08-07T05:10:39;96593.41;;;22.14;100.00
8061;BME280;4073;42.626;25.386;2023-08-07T05:13:05;96592.03;;;22.24;100.00
8061;BME280;4073;42.626;25.386;2023-08-07T05:15:30;96590.59;;;22.30;97.72
8061;BME280;4073;42.626;25.386;2023-08-07T05:17:56;96598.53;;;22.38;94.79
8061;BME280;4073;42.626;25.386;2023-08-07T05:20:22;96597.63;;;22.50;94.87
8061;BME280;4073;42.626;25.386;2023-08-07T05:22:47;96590.66;;;22.52;93.50
8061;BME280;4073;42.626;25.386;2023-08-07T05:25:13;96595.50;;;22.62;94.41
8061;BME280;4073;42.626;25.386;2023-08-07T05:27:44;96601.34;;;22.84;91.33
8061;BME280;4073;42.626;25.386;2023-08-07T05:30:10;96597.69;;;22.99;89.44
8061;BME280;4073;42.626;25.386;2023-08-07T05:32:36;96594.31;;;23.28;89.10
8061;BME280;4073;42.626;25.386;2023-08-07T05:35:05;96593.28;;;23.39;82.23
8061;BME280;4073;42.626;25.386;2023-08-07T05:37:32;96590.34;;;23.51;83.96
8061;BME280;4073;42.626;25.386;2023-08-07T05:39:58;96609.19;;;23.60;80.06
8061;BME280;4073;42.626;25.386;2023-08-07T05:42:23;96612.34;;;23.62;82.54
8061;BME280;4073;42.626;25.386;2023-08-07T05:44:49;96610.22;;;23.78;78.62
8061;BME280;4073;42.626;25.386;2023-08-07T05:47:14;96601.34;;;23.84;77.05
8061;BME280;4073;42.626;25.386;2023-08-07T05:49:40;96613.66;;;23.97;75.14
8061;BME280;4073;42.626;25.386;2023-08-07T05:52:05;96614.56;;;24.08;76.09
8061;BME280;4073;42.626;25.386;2023-08-07T05:54:31;96618.03;;;24.05;73.60
8061;BME280;4073;42.626;25.386;2023-08-07T05:56:57;96607.91;;;24.06;82.35
8061;BME280;4073;42.626;25.386;2023-08-07T05:59:22;96624.16;;;24.28;79.25
8061;BME280;4073;42.626;25.386;2023-08-07T06:01:47;96629.19;;;24.59;76.13
8061;BME280;4073;42.626;25.386;2023-08-07T06:04:13;96619.69;;;24.79;71.30
8061;BME280;4073;42.626;25.386;2023-08-07T06:06:39;96631.06;;;24.85;67.47
8061;BME280;4073;42.626;25.386;2023-08-07T06:09:05;96631.31;;;25.13;70.03
8061;BME280;4073;42.626;25.386;2023-08-07T06:11:31;96628.00;;;25.37;70.29
8061;BME280;4073;42.626;25.386;2023-08-07T06:13:58;96630.50;;;25.56;68.15
8061;BME280;4073;42.626;25.386;2023-08-07T06:16:23;96629.69;;;25.52;67.49
8061;BME280;4073;42.626;25.386;2023-08-07T06:18:49;96637.50;;;25.50;64.97
8061;BME280;4073;42.626;25.386;2023-08-07T06:21:14;96634.13;;;25.71;64.72
8061;BME280;4073;42.626;25.386;2023-08-07T06:23:40;96641.66;;;25.88;62.90
8061;BME280;4073;42.626;25.386;2023-08-07T06:26:05;96639.00;;;25.98;61.23
8061;BME280;4073;42.626;25.386;2023-08-07T06:28:33;96640.91;;;25.91;62.25
8061;BME280;4073;42.626;25.386;2023-08-07T06:31:08;96654.31;;;26.10;61.55
8061;BME280;4073;42.626;25.386;2023-08-07T06:33:35;96647.69;;;26.18;60.80
8061;BME280;4073;42.626;25.386;2023-08-07T06:36:01;96658.28;;;26.16;59.94
8061;BME280;4073;42.626;25.386;2023-08-07T06:38:27;96657.94;;;26.24;59.50
8061;BME280;4073;42.626;25.386;2023-08-07T06:40:52;96660.31;;;26.33;60.11
8061;BME280;4073;42.626;25.386;2023-08-07T06:43:18;96674.81;;;26.33;58.91
8061;BME280;4073;42.626;25.386;2023-08-07T06:45:46;96669.75;;;26.42;59.30
8061;BME280;4073;42.626;25.386;2023-08-07T06:48:12;96669.00;;;26.49;57.72
8061;BME280;4073;42.626;25.386;2023-08-07T06:50:37;96667.94;;;26.74;56.29
8061;BME280;4073;42.626;25.386;2023-08-07T06:53:03;96672.28;;;26.96;55.72
8061;BME280;4073;42.626;25.386;2023-08-07T06:55:28;96675.44;;;27.09;55.41
8061;BME280;4073;42.626;25.386;2023-08-07T06:57:53;96669.97;;;27.19;54.68
8061;BME280;4073;42.626;25.386;2023-08-07T07:00:19;96673.50;;;27.20;52.10
8061;BME280;4073;42.626;25.386;2023-08-07T07:02:45;96663.34;;;27.31;52.47
8061;BME280;4073;42.626;25.386;2023-08-07T07:05:10;96671.19;;;27.47;53.40
8061;BME280;4073;42.626;25.386;2023-08-07T07:07:35;96671.19;;;27.64;50.23
8061;BME280;4073;42.626;25.386;2023-08-07T07:10:01;96675.91;;;27.88;49.52
8061;BME280;4073;42.626;25.386;2023-08-07T07:12:27;96675.09;;;27.95;48.72
8061;BME280;4073;42.626;25.386;2023-08-07T07:14:53;96670.38;;;28.02;48.83
8061;BME280;4073;42.626;25.386;2023-08-07T07:17:18;96671.56;;;27.98;46.87
8061;BME280;4073;42.626;25.386;2023-08-07T07:19:44;96668.03;;;27.69;48.45
8061;BME280;4073;42.626;25.386;2023-08-07T07:22:09;96661.75;;;27.97;47.72
8061;BME280;4073;42.626;25.386;2023-08-07T07:24:34;96657.72;;;28.26;49.30
8061;BME280;4073;42.626;25.386;2023-08-07T07:27:00;96661.28;;;28.26;46.02
8061;BME280;4073;42.626;25.386;2023-08-07T07:29:25;96662.38;;;28.43;47.13
8061;BME280;4073;42.626;25.386;2023-08-07T07:31:51;96660.03;;;28.48;47.53
8061;BME280;4073;42.626;25.386;2023-08-07T07:34:16;96666.63;;;28.72;44.71
8061;BME280;4073;42.626;25.386;2023-08-07T07:36:42;96674.41;;;28.84;43.32
8061;BME280;4073;42.626;25.386;2023-08-07T07:39:07;96668.13;;;28.83;44.54
8061;BME280;4073;42.626;25.386;2023-08-07T07:41:33;96679.91;;;28.87;45.97
8061;BME280;4073;42.626;25.386;2023-08-07T07:43:58;96682.25;;;28.89;42.65
8061;BME280;4073;42.626;25.386;2023-08-07T07:46:24;96678.28;;;28.93;42.50
8061;BME280;4073;42.626;25.386;2023-08-07T07:48:49;96675.72;;;29.27;43.42
8061;BME280;4073;42.626;25.386;2023-08-07T07:51:15;96671.13;;;29.10;45.08
8061;BME280;4073;42.626;25.386;2023-08-07T07:53:40;96676.28;;;29.04;41.99
8061;BME280;4073;42.626;25.386;2023-08-07T07:56:06;96684.44;;;29.18;39.00
8061;BME280;4073;42.626;25.386;2023-08-07T07:58:31;96682.84;;;29.21;39.49
8061;BME280;4073;42.626;25.386;2023-08-07T08:00:56;96686.78;;;29.20;41.04
8061;BME280;4073;42.626;25.386;2023-08-07T08:03:22;96689.91;;;29.25;40.08
8061;BME280;4073;42.626;25.386;2023-08-07T08:05:52;96689.50;;;29.27;39.20
8061;BME280;4073;42.626;25.386;2023-08-07T08:08:17;96695.69;;;29.41;38.04
8061;BME280;4073;42.626;25.386;2023-08-07T08:10:44;96692.78;;;29.59;37.39
8061;BME280;4073;42.626;25.386;2023-08-07T08:13:10;96689.84;;;29.87;36.66
8061;BME280;4073;42.626;25.386;2023-08-07T08:15:36;96685.41;;;29.97;36.25
8061;BME280;4073;42.626;25.386;2023-08-07T08:18:01;96688.34;;;30.20;35.52
8061;BME280;4073;42.626;25.386;2023-08-07T08:20:27;96682.63;;;30.37;34.69
8061;BME280;4073;42.626;25.386;2023-08-07T08:22:52;96676.50;;;30.56;34.27
8061;BME280;4073;42.626;25.386;2023-08-07T08:25:18;96680.81;;;30.57;34.66
8061;BME280;4073;42.626;25.386;2023-08-07T08:27:45;96687.56;;;30.53;34.73
8061;BME280;4073;42.626;25.386;2023-08-07T08:30:11;96698.25;;;30.51;34.39
8061;BME280;4073;42.626;25.386;2023-08-07T08:32:38;96695.66;;;30.37;34.25
8061;BME280;4073;42.626;25.386;2023-08-07T08:35:04;96695.34;;;30.61;34.55
8061;BME280;4073;42.626;25.386;2023-08-07T08:37:31;96687.47;;;30.93;33.22
8061;BME280;4073;42.626;25.386;2023-08-07T08:39:56;96692.69;;;31.14;31.71
8061;BME280;4073;42.626;25.386;2023-08-07T08:42:22;96700.06;;;30.94;31.27
8061;BME280;4073;42.626;25.386;2023-08-07T08:44:52;96698.69;;;31.09;31.78
8061;BME280;4073;42.626;25.386;2023-08-07T08:47:18;96699.25;;;31.27;31.51
8061;BME280;4073;42.626;25.386;2023-08-07T08:49:49;96698.91;;;31.22;31.64
8061;BME280;4073;42.626;25.386;2023-08-07T08:52:16;96698.53;;;31.20;31.18
8061;BME280;4073;42.626;25.386;2023-08-07T08:54:43;96702.28;;;31.36;31.38
8061;BME280;4073;42.626;25.386;2023-08-07T08:57:09;96691.47;;;31.45;31.67
8061;BME280;4073;42.626;25.386;2023-08-07T08:59:36;96690.88;;;31.31;31.73
8061;BME280;4073;42.626;25.386;2023-08-07T09:02:02;96688.28;;;31.20;33.25
8061;BME280;4073;42.626;25.386;2023-08-07T09:04:27;96681.34;;;31.35;31.96
8061;BME280;4073;42.626;25.386;2023-08-07T09:06:53;96690.22;;;31.73;31.29
8061;BME280;4073;42.626;25.386;2023-08-07T09:09:20;96679.66;;;32.14;31.17
8061;BME280;4073;42.626;25.386;2023-08-07T09:11:47;96675.41;;;32.29;31.24
8061;BME280;4073;42.626;25.386;2023-08-07T09:14:16;96696.53;;;32.20;31.98
8061;BME280;4073;42.626;25.386;2023-08-07T09:16:43;96695.16;;;32.51;32.24
8061;BME280;4073;42.626;25.386;2023-08-07T09:19:09;96687.88;;;32.60;30.00
8061;BME280;4073;42.626;25.386;2023-08-07T09:21:34;96686.94;;;32.67;29.99
8061;BME280;4073;42.626;25.386;2023-08-07T09:24:00;96687.22;;;32.92;30.71
8061;BME280;4073;42.626;25.386;2023-08-07T09:26:26;96684.66;;;32.62;31.25
8061;BME280;4073;42.626;25.386;2023-08-07T09:28:52;96678.84;;;32.95;29.49
8061;BME280;4073;42.626;25.386;2023-08-07T09:31:19;96677.97;;;33.34;29.87
8061;BME280;4073;42.626;25.386;2023-08-07T09:33:47;96685.44;;;33.69;29.51
8061;BME280;4073;42.626;25.386;2023-08-07T09:36:13;96684.31;;;34.14;28.06
8061;BME280;4073;42.626;25.386;2023-08-07T09:38:39;96679.03;;;34.33;28.83
8061;BME280;4073;42.626;25.386;2023-08-07T09:41:04;96685.41;;;34.17;29.31
8061;BME280;4073;42.626;25.386;2023-08-07T09:43:34;96670.56;;;33.47;27.80
8061;BME280;4073;42.626;25.386;2023-08-07T09:46:04;96676.66;;;32.87;29.05
8061;BME280;4073;42.626;25.386;2023-08-07T09:48:30;96680.06;;;32.94;28.51
8061;BME280;4073;42.626;25.386;2023-08-07T09:51:00;96679.06;;;33.20;29.18
8061;BME280;4073;42.626;25.386;2023-08-07T09:53:27;96675.13;;;33.02;29.44
8061;BME280;4073;42.626;25.386;2023-08-07T09:55:53;96670.50;;;33.31;28.82
8061;BME280;4073;42.626;25.386;2023-08-07T09:58:19;96669.28;;;33.32;28.54
8061;BME280;4073;42.626;25.386;2023-08-07T10:00:46;96681.81;;;33.20;28.77
8061;BME280;4073;42.626;25.386;2023-08-07T10:03:13;96680.00;;;33.14;29.05
8061;BME280;4073;42.626;25.386;2023-08-07T10:05:39;96670.69;;;33.24;29.09
8061;BME280;4073;42.626;25.386;2023-08-07T10:08:05;96675.75;;;33.45;28.54
8061;BME280;4073;42.626;25.386;2023-08-07T10:10:32;96679.59;;;33.31;28.16
8061;BME280;4073;42.626;25.386;2023-08-07T10:13:00;96663.81;;;33.12;28.36
8061;BME280;4073;42.626;25.386;2023-08-07T10:15:27;96668.84;;;33.17;27.93
8061;BME280;4073;42.626;25.386;2023-08-07T10:17:53;96660.22;;;32.96;28.22
8061;BME280;4073;42.626;25.386;2023-08-07T10:20:19;96663.72;;;33.16;28.60
8061;BME280;4073;42.626;25.386;2023-08-07T10:22:46;96661.69;;;33.20;28.93
8061;BME280;4073;42.626;25.386;2023-08-07T10:25:12;96658.28;;;33.12;28.26
8061;BME280;4073;42.626;25.386;2023-08-07T10:27:40;96661.66;;;32.65;29.95
8061;BME280;4073;42.626;25.386;2023-08-07T10:30:10;96655.56;;;32.73;30.22
8061;BME280;4073;42.626;25.386;2023-08-07T10:32:41;96654.94;;;32.85;29.03
8061;BME280;4073;42.626;25.386;2023-08-07T10:35:08;96655.59;;;33.09;28.87
8061;BME280;4073;42.626;25.386;2023-08-07T10:37:44;96651.72;;;33.22;28.98
8061;BME280;4073;42.626;25.386;2023-08-07T10:40:11;96646.66;;;33.37;29.37
8061;BME280;4073;42.626;25.386;2023-08-07T10:43:10;96644.72;;;33.34;29.50
8061;BME280;4073;42.626;25.386;2023-08-07T10:45:36;96658.50;;;33.69;29.85
8061;BME280;4073;42.626;25.386;2023-08-07T10:48:08;96658.88;;;33.87;29.73
8061;BME280;4073;42.626;25.386;2023-08-07T10:50:50;96671.41;;;33.76;29.15
8061;BME280;4073;42.626;25.386;2023-08-07T10:53:20;96669.97;;;33.55;27.67
8061;BME280;4073;42.626;25.386;2023-08-07T10:55:48;96658.94;;;33.52;28.16
8061;BME280;4073;42.626;25.386;2023-08-07T10:58:52;96667.09;;;33.75;28.13
8061;BME280;4073;42.626;25.386;2023-08-07T11:03:52;96656.78;;;34.36;27.12
8061;BME280;4073;42.626;25.386;2023-08-07T11:06:26;96653.50;;;34.54;26.63
8061;BME280;4073;42.626;25.386;2023-08-07T11:08:52;96641.41;;;35.01;26.93
8061;BME280;4073;42.626;25.386;2023-08-07T11:11:18;96635.63;;;34.55;27.24
8061;BME280;4073;42.626;25.386;2023-08-07T11:13:44;96639.94;;;34.84;28.03
8061;BME280;4073;42.626;25.386;2023-08-07T11:16:09;96640.50;;;33.93;26.96
8061;BME280;4073;42.626;25.386;2023-08-07T11:18:37;96630.28;;;35.01;25.58
8061;BME280;4073;42.626;25.386;2023-08-07T11:21:06;96630.50;;;36.03;24.59
8061;BME280;4073;42.626;25.386;2023-08-07T11:23:32;96629.06;;;36.55;23.30
8061;BME280;4073;42.626;25.386;2023-08-07T11:25:57;96627.56;;;36.84;23.17
8061;BME280;4073;42.626;25.386;2023-08-07T11:28:23;96635.22;;;37.23;23.30
8061;BME280;4073;42.626;25.386;2023-08-07T11:30:50;96620.72;;;37.07;22.72
8061;BME280;4073;42.626;25.386;2023-08-07T11:33:20;96623.38;;;37.10;22.70
8061;BME280;4073;42.626;25.386;2023-08-07T11:35:48;96622.09;;;37.33;23.70
8061;BME280;4073;42.626;25.386;2023-08-07T11:38:36;96621.09;;;36.87;23.72
8061;BME280;4073;42.626;25.386;2023-08-07T11:41:04;96617.50;;;36.34;24.16
8061;BME280;4073;42.626;25.386;2023-08-07T11:43:31;96608.28;;;35.19;25.94
8061;BME280;4073;42.626;25.386;2023-08-07T11:45:59;96618.25;;;34.38;26.86
8061;BME280;4073;42.626;25.386;2023-08-07T11:48:26;96610.28;;;34.11;27.73
8061;BME280;4073;42.626;25.386;2023-08-07T11:50:53;96604.69;;;33.83;27.85
8061;BME280;4073;42.626;25.386;2023-08-07T11:53:20;96605.25;;;33.62;27.41
8061;BME280;4073;42.626;25.386;2023-08-07T11:55:51;96615.66;;;33.58;26.71
8061;BME280;4073;42.626;25.386;2023-08-07T11:58:17;96613.81;;;33.51;27.16
8061;BME280;4073;42.626;25.386;2023-08-07T12:00:43;96599.03;;;33.42;28.54
8061;BME280;4073;42.626;25.386;2023-08-07T12:05:58;96609.88;;;33.33;27.45
8061;BME280;4073;42.626;25.386;2023-08-07T12:08:24;96604.38;;;33.17;27.40
8061;BME280;4073;42.626;25.386;2023-08-07T12:10:53;96597.13;;;33.39;28.01
8061;BME280;4073;42.626;25.386;2023-08-07T12:13:24;96597.38;;;33.44;28.46
8061;BME280;4073;42.626;25.386;2023-08-07T12:15:54;96603.34;;;33.59;26.72
8061;BME280;4073;42.626;25.386;2023-08-07T12:18:20;96597.53;;;33.53;27.35
8061;BME280;4073;42.626;25.386;2023-08-07T12:20:46;96591.94;;;33.41;28.38
8061;BME280;4073;42.626;25.386;2023-08-07T12:23:15;96585.16;;;33.58;28.10
8061;BME280;4073;42.626;25.386;2023-08-07T12:25:44;96584.28;;;33.29;27.63
8061;BME280;4073;42.626;25.386;2023-08-07T12:28:10;96583.38;;;32.84;27.93
8061;BME280;4073;42.626;25.386;2023-08-07T12:30:40;96586.50;;;32.66;27.58
8061;BME280;4073;42.626;25.386;2023-08-07T12:33:05;96579.94;;;32.60;28.89
8061;BME280;4073;42.626;25.386;2023-08-07T12:35:33;96581.59;;;32.74;28.26
8061;BME280;4073;42.626;25.386;2023-08-07T12:37:59;96591.78;;;32.96;27.88
8061;BME280;4073;42.626;25.386;2023-08-07T12:40:25;96593.88;;;33.08;28.46
8061;BME280;4073;42.626;25.386;2023-08-07T12:42:50;96591.41;;;33.30;26.93
8061;BME280;4073;42.626;25.386;2023-08-07T12:45:16;96592.84;;;33.34;26.86
8061;BME280;4073;42.626;25.386;2023-08-07T12:47:45;96593.66;;;33.35;27.22
8061;BME280;4073;42.626;25.386;2023-08-07T12:50:11;96574.22;;;33.19;27.31
8061;BME280;4073;42.626;25.386;2023-08-07T12:52:36;96589.97;;;33.06;28.57
8061;BME280;4073;42.626;25.386;2023-08-07T12:55:02;96575.88;;;33.00;27.18
8061;BME280;4073;42.626;25.386;2023-08-07T12:57:28;96584.28;;;32.97;27.41
8061;BME280;4073;42.626;25.386;2023-08-07T12:59:54;96584.88;;;32.88;27.28
8061;BME280;4073;42.626;25.386;2023-08-07T13:02:19;96584.28;;;32.61;27.10
8061;BME280;4073;42.626;25.386;2023-08-07T13:04:45;96576.34;;;32.44;27.28
8061;BME280;4073;42.626;25.386;2023-08-07T13:07:11;96580.53;;;32.13;27.91
8061;BME280;4073;42.626;25.386;2023-08-07T13:09:37;96575.53;;;32.24;27.98
8061;BME280;4073;42.626;25.386;2023-08-07T13:12:02;96570.38;;;32.45;28.16
8061;BME280;4073;42.626;25.386;2023-08-07T13:14:28;96565.13;;;32.51;28.04
8061;BME280;4073;42.626;25.386;2023-08-07T13:16:53;96565.44;;;32.72;28.39